Nearby METAR Reports


RPLC - Angeles/Pampanga, Philippines
Distance from station: S 166km
Updated: Fri, 24-May-2019 1:00pm PST
Mostly cloudy
Mostly cloudy
 Wind from SSE
Wind: SSE 11 km/h
Temperature: 35°C
Heat Index: 42°C
Dew Point: 24°C
Humidity: 53%
Barometer: 1010 hPa
Clouds: Mostly cloudy
Visibility: 10 km
Cloud details: Partly cloudy 610 m
Mostly cloudy 3048 m
2019/05/24 05:00 RPLC 240500Z 16006KT 9999 SCT020 BKN100 35/24 Q1010 NOSIG RMK A2983
RPLI - Laoag Intl Airport, Philippines
Distance from station: N 171km
Updated: Fri, 24-May-2019 1:00pm PST
Few Clouds
Few Clouds
 Wind from NW
Wind: NW 13 km/h
Temperature: 32°C
Heat Index: 42°C
Dew Point: 26°C
Humidity: 71%
Barometer: 1009 hPa
Clouds: Few Clouds
Visibility: 10 km
Cloud details: Few Clouds 518 m
2019/05/24 05:00 RPLI 240500Z 31007KT 280V350 9999 FEW017CB 32/26 Q1009 NOSIG RMK A2980 CB ENE/SE/S/W
 
RPLB - Olongapo/Subic, Philippines
Distance from station: S 205km
Updated: Fri, 24-May-2019 1:00pm PST
Partly cloudy
Partly cloudy
 Wind from SW
Wind: SW 19 km/h
Temperature: 32°C
Heat Index: 42°C
Dew Point: 26°C
Humidity: 71%
Barometer: 1009 hPa
Clouds: Partly cloudy
Visibility: 10 km
Cloud details: Few Clouds 549 m
Few Clouds 610 m
Partly cloudy 9144 m
2019/05/24 05:00 RPLB 240500Z 22010KT 9999 FEW018CB FEW020 SCT300 32/26 Q1009 NOSIG RMK A2980 CB N
RPLL - Ninoy Aquino Intl Airport, Philippines
Distance from station: SSE 247km
Updated: Fri, 24-May-2019 1:00pm PST
Mostly cloudy
Mostly cloudy
 Wind from ESE
Wind: ESE 11 km/h
Temperature: 35°C
Heat Index: 42°C
Dew Point: 24°C
Humidity: 53%
Barometer: 1009 hPa
Clouds: Mostly cloudy
Visibility: 10 km
Cloud details: Few Clouds 671 m
Partly cloudy 701 m
Mostly cloudy 9144 m
2019/05/24 05:00 RPLL 240500Z 11006KT 9999 FEW022CB SCT023 BKN300 35/24 Q1009 NOSIG RMK A2980 CB N